Time,TemperatureF,DewpointF,PressureIn,WindDirection,WindDirectionDegrees,WindSpeedMPH,WindSpeedGustMPH,Humidity,HourlyPrecipIn,Conditions,Clouds,dailyrainin,SoftwareType,DateUTC
2014-01-01 00:22:00,18.0,9.0,30.23,WNW,293,6.0,12.0,68,0.00,,,0.00,,2014-01-01 05:22:00,
2014-01-01 00:43:00,18.0,10.0,30.23,West,279,10.0,18.0,69,0.00,,,0.00,,2014-01-01 05:43:00,
2014-01-01 00:52:00,18.0,10.0,30.23,West,271,10.0,14.0,70,0.00,,,0.00,,2014-01-01 05:52:00,
2014-01-01 01:22:00,18.0,10.0,30.25,WSW,257,9.0,14.0,70,0.00,,,0.00,,2014-01-01 06:22:00,
2014-01-01 01:52:00,18.0,10.0,30.25,WSW,253,9.0,17.0,71,0.00,,,0.00,,2014-01-01 06:52:00,
2014-01-01 02:22:00,18.0,12.0,30.27,WNW,282,11.0,16.0,77,0.00,,,0.00,,2014-01-01 07:22:00,
2014-01-01 02:42:00,17.0,13.0,30.27,West,263,3.0,10.0,83,0.00,,,0.00,,2014-01-01 07:42:00,
2014-01-01 02:52:00,17.0,13.0,30.28,West,262,9.0,10.0,84,0.00,,,0.00,,2014-01-01 07:52:00,
2014-01-01 03:22:00,17.0,12.0,30.28,West,259,2.0,11.0,81,0.00,,,0.00,,2014-01-01 08:22:00,
2014-01-01 03:42:00,17.0,12.0,30.28,West,279,1.0,11.0,82,0.00,,,0.00,,2014-01-01 08:42:00,
2014-01-01 03:52:00,16.0,10.0,30.28,West,263,10.0,17.0,78,0.00,,,0.00,,2014-01-01 08:52:00,
2014-01-01 04:22:00,16.0,8.0,30.28,WSW,254,2.0,13.0,70,0.00,,,0.00,,2014-01-01 09:22:00,
2014-01-01 04:43:00,16.0,8.0,30.29,West,276,4.0,11.0,70,0.00,,,0.00,,2014-01-01 09:43:00,
2014-01-01 04:53:00,16.0,8.0,30.29,West,269,1.0,14.0,70,0.00,,,0.00,,2014-01-01 09:53:00,
2014-01-01 05:23:00,15.0,7.0,30.28,WSW,256,5.0,10.0,70,0.00,,,0.00,,2014-01-01 10:23:00,
2014-01-01 05:53:00,14.0,6.0,30.29,SW,233,6.0,11.0,70,0.00,,,0.00,,2014-01-01 10:53:00,
2014-01-01 06:22:00,13.0,5.0,30.29,WSW,249,5.0,10.0,70,0.00,,,0.00,,2014-01-01 11:22:00,
2014-01-01 06:53:00,13.0,5.0,30.30,SW,232,4.0,12.0,70,0.00,,,0.00,,2014-01-01 11:53:00,
2014-01-01 07:22:00,13.0,5.0,30.31,SW,233,5.0,9.0,70,0.00,,,0.00,,2014-01-01 12:22:00,
2014-01-01 07:42:00,13.0,5.0,30.32,SW,224,1.0,9.0,71,0.00,,,0.00,,2014-01-01 12:42:00,
2014-01-01 07:52:00,13.0,5.0,30.32,WSW,240,3.0,11.0,71,0.00,,,0.00,,2014-01-01 12:52:00,
2014-01-01 08:22:00,13.0,5.0,30.32,SW,219,3.0,10.0,71,0.00,,,0.00,,2014-01-01 13:22:00,
2014-01-01 08:52:00,14.0,6.0,30.34,WSW,251,1.0,6.0,71,0.00,,,0.00,,2014-01-01 13:52:00,
2014-01-01 09:22:00,15.0,8.0,30.35,West,263,0.0,7.0,72,0.00,,,0.00,,2014-01-01 14:22:00,
2014-01-01 09:42:00,16.0,9.0,30.36,WNW,288,0.0,10.0,74,0.00,,,0.00,,2014-01-01 14:42:00,
2014-01-01 09:52:00,16.0,9.0,30.37,West,267,1.0,10.0,74,0.00,,,0.00,,2014-01-01 14:52:00,
2014-01-01 10:22:00,17.0,10.0,30.38,WSW,246,1.0,7.0,73,0.00,,,0.00,,2014-01-01 15:22:00,
2014-01-01 10:43:00,18.0,11.0,30.38,WNW,298,1.0,3.0,72,0.00,,,0.00,,2014-01-01 15:43:00,
2014-01-01 10:53:00,18.0,10.0,30.38,West,271,0.0,4.0,71,0.00,,,0.00,,2014-01-01 15:53:00,
2014-01-01 11:23:00,19.0,10.0,30.37,NW,313,1.0,5.0,66,0.00,,,0.00,,2014-01-01 16:23:00,
2014-01-01 11:43:00,19.0,10.0,30.37,West,277,1.0,4.0,66,0.00,,,0.00,,2014-01-01 16:43:00,
2014-01-01 11:53:00,19.0,9.0,30.36,West,281,1.0,3.0,65,0.00,,,0.00,,2014-01-01 16:53:00,
2014-01-01 12:22:00,20.0,10.0,30.36,WNW,300,0.0,2.0,64,0.00,,,0.00,,2014-01-01 17:22:00,
2014-01-01 12:43:00,20.0,10.0,30.35,NNW,339,1.0,3.0,64,0.00,,,0.00,,2014-01-01 17:43:00,
2014-01-01 12:52:00,21.0,10.0,30.35,NNW,328,0.0,2.0,62,0.00,,,0.00,,2014-01-01 17:52:00,
2014-01-01 13:22:00,21.0,10.0,30.35,NW,308,0.0,2.0,61,0.00,,,0.00,,2014-01-01 18:22:00,
2014-01-01 13:42:00,21.0,10.0,30.35,North,9,0.0,2.0,61,0.00,,,0.00,,2014-01-01 18:42:00,
2014-01-01 13:53:00,21.0,13.0,30.35,NE,38,3.0,5.0,72,0.00,,,0.00,,2014-01-01 18:53:00,
2014-01-01 14:22:00,18.0,13.0,30.35,NE,34,2.0,12.0,81,0.00,,,0.00,,2014-01-01 19:22:00,
2014-01-01 14:42:00,17.0,13.0,30.35,ENE,61,3.0,9.0,83,0.00,,,0.00,,2014-01-01 19:42:00,
2014-01-01 14:52:00,17.0,13.0,30.35,NE,54,3.0,10.0,83,0.00,,,0.00,,2014-01-01 19:52:00,
2014-01-01 15:12:00,17.0,13.0,30.36,NNE,20,4.0,10.0,83,0.00,,,0.00,,2014-01-01 20:12:00,
2014-01-01 15:22:00,17.0,13.0,30.35,NE,38,2.0,9.0,85,0.00,,,0.00,,2014-01-01 20:22:00,
2014-01-01 15:42:00,16.0,12.0,30.35,NNE,30,6.0,10.0,84,0.00,,,0.00,,2014-01-01 20:42:00,
2014-01-01 15:53:00,16.0,12.0,30.35,ENE,59,2.0,7.0,85,0.00,,,0.00,,2014-01-01 20:53:00,
2014-01-01 16:22:00,15.0,11.0,30.35,NE,46,0.0,9.0,83,0.00,,,0.00,,2014-01-01 21:22:00,
2014-01-01 16:43:00,15.0,11.0,30.35,NE,54,0.0,5.0,83,0.00,,,0.00,,2014-01-01 21:43:00,
2014-01-01 16:53:00,15.0,11.0,30.35,ENE,71,0.0,5.0,82,0.00,,,0.00,,2014-01-01 21:53:00,
2014-01-01 17:23:00,15.0,11.0,30.35,NE,53,0.0,5.0,82,0.00,,,0.00,,2014-01-01 22:23:00,
2014-01-01 17:42:00,15.0,11.0,30.35,ENE,61,1.0,3.0,82,0.00,,,0.00,,2014-01-01 22:42:00,
2014-01-01 17:53:00,15.0,11.0,30.35,NE,49,0.0,4.0,82,0.00,,,0.00,,2014-01-01 22:53:00,
2014-01-01 18:22:00,15.0,11.0,30.35,NE,53,2.0,5.0,82,0.00,,,0.00,,2014-01-01 23:22:00,
2014-01-01 18:52:00,15.0,11.0,30.35,East,82,0.0,4.0,83,0.00,,,0.00,,2014-01-01 23:52:00,
2014-01-01 19:11:00,15.0,11.0,30.35,ENE,78,0.0,4.0,84,0.00,,,0.00,,2014-01-02 00:11:00,
2014-01-01 19:22:00,15.0,11.0,30.35,ENE,78,1.0,6.0,84,0.00,,,0.00,,2014-01-02 00:22:00,
2014-01-01 19:42:00,15.0,11.0,30.35,East,84,2.0,5.0,85,0.00,,,0.00,,2014-01-02 00:42:00,
2014-01-01 19:52:00,15.0,11.0,30.35,ENE,65,1.0,4.0,85,0.00,,,0.00,,2014-01-02 00:52:00,
2014-01-01 20:22:00,15.0,12.0,30.35,ENE,58,0.0,6.0,86,0.00,,,0.00,,2014-01-02 01:22:00,
2014-01-01 20:42:00,14.0,11.0,30.34,ENE,57,1.0,7.0,86,0.00,,,0.00,,2014-01-02 01:42:00,
2014-01-01 20:52:00,14.0,11.0,30.34,ENE,57,2.0,5.0,86,0.00,,,0.00,,2014-01-02 01:52:00,
2014-01-01 21:22:00,14.0,11.0,30.34,ENE,73,3.0,7.0,86,0.00,,,0.00,,2014-01-02 02:22:00,
2014-01-01 22:22:00,14.0,11.0,30.32,ENE,61,1.0,3.0,88,0.00,,,0.00,,2014-01-02 03:22:00,
2014-01-01 22:53:00,14.0,11.0,30.31,NE,45,0.0,5.0,88,0.00,,,0.00,,2014-01-02 03:53:00,
2014-01-01 23:23:00,14.0,11.0,30.31,NE,47,3.0,8.0,89,0.00,,,0.00,,2014-01-02 04:23:00,
2014-01-01 23:53:00,14.0,11.0,30.30,ENE,67,6.0,11.0,88,0.00,,,0.00,,2014-01-02 04:53:00,